Terminal Aerodrome Forecast
Issued by NWS Mt. Holly, NJ

Home | Current Version | Previous Version | Text Only | Print | Product List | Glossary On
Versions: 1 2 3 4 5 6 7 8 9 10 11 12 13 14 15 16 17 18 19 20 21 22 23 24 25 26 27
391
FTUS41 KPHI 260314 AAB
TAFRDG
TAF AMD
KRDG 260314Z 2603/2624 VRB03KT P6SM SCT015 OVC040
      TEMPO 2603/2606 4SM -SHRA BR OVC015
     FM260600 VRB03KT 3SM BR OVC005
     FM261000 28007KT 5SM BR SCT005 OVC015
     FM261400 28014G21KT P6SM SCT015 BKN025
     FM261700 29016G26KT P6SM SCT025 BKN060 PROB30 2619/2624 -SHRA=

USA.gov is the U.S. government's official web portal to all federal, state and local government web resources and services.